createdAt,value
2022-11-23T00:01:37.642Z,15.70
2022-11-23T00:04:08.575Z,16.42
2022-11-23T00:06:37.435Z,16.75
2022-11-23T00:09:07.428Z,16.65
2022-11-23T00:11:37.112Z,17.25
2022-11-23T00:14:05.511Z,15.70
2022-11-23T00:19:22.789Z,17.08
2022-11-23T00:21:51.116Z,18.08
2022-11-23T00:24:19.731Z,18.20
2022-11-23T00:26:48.195Z,18.80
2022-11-23T00:29:17.625Z,18.52
2022-11-23T00:31:46.052Z,18.83
2022-11-23T00:34:16.198Z,17.88
2022-11-23T00:36:44.684Z,19.10
2022-11-23T00:39:13.124Z,18.08
2022-11-23T00:41:42.997Z,18.35
2022-11-23T00:44:11.666Z,18.63
2022-11-23T00:46:41.498Z,18.65
2022-11-23T00:49:10.077Z,18.17
2022-11-23T00:51:38.685Z,20.02
2022-11-23T00:54:07.410Z,19.77
2022-11-23T00:56:36.467Z,18.60
2022-11-23T00:59:04.975Z,18.23
2022-11-23T01:01:37.165Z,18.75
2022-11-23T01:04:07.773Z,18.92
2022-11-23T01:06:39.008Z,19.65
2022-11-23T01:09:18.008Z,18.92
2022-11-23T01:11:46.561Z,19.92
2022-11-23T01:14:15.332Z,19.48
2022-11-23T01:16:44.192Z,19.33
2022-11-23T01:19:15.252Z,20.55
2022-11-23T01:24:20.790Z,19.30
2022-11-23T01:26:56.303Z,22.13
2022-11-23T01:29:25.303Z,20.73
2022-11-23T01:31:53.728Z,21.77
2022-11-23T01:34:25.039Z,21.20
2022-11-23T01:36:53.328Z,21.23
2022-11-23T01:39:25.362Z,21.55
2022-11-23T01:41:53.821Z,21.60
2022-11-23T01:44:28.747Z,20.52
2022-11-23T01:47:03.534Z,22.00
2022-11-23T01:49:39.112Z,23.27
2022-11-23T01:52:21.341Z,20.65
2022-11-23T01:55:02.582Z,23.35
2022-11-23T01:57:41.708Z,20.05
2022-11-23T02:00:11.201Z,23.08
2022-11-23T02:02:47.661Z,21.98
2022-11-23T02:05:22.900Z,21.27
2022-11-23T02:07:54.697Z,22.33
2022-11-23T02:10:23.948Z,22.15
2022-11-23T02:12:54.297Z,21.25
2022-11-23T02:15:23.087Z,21.83
2022-11-23T02:17:52.100Z,21.88
2022-11-23T02:20:20.693Z,21.42
2022-11-23T02:23:04.620Z,21.05
2022-11-23T02:25:34.768Z,21.58
2022-11-23T02:28:03.170Z,21.90
2022-11-23T02:30:32.837Z,21.23
2022-11-23T02:33:05.154Z,22.08
2022-11-23T02:35:34.621Z,21.77
2022-11-23T02:38:06.659Z,23.83
2022-11-23T02:40:37.033Z,23.00
2022-11-23T02:46:01.941Z,22.25
2022-11-23T02:48:30.236Z,21.77
2022-11-23T02:50:58.544Z,22.20
2022-11-23T02:53:27.029Z,22.13
2022-11-23T02:55:56.086Z,21.60
2022-11-23T02:58:26.048Z,23.05
2022-11-23T03:00:54.747Z,22.25
2022-11-23T03:03:23.933Z,22.58
2022-11-23T03:05:53.077Z,21.83
2022-11-23T03:08:21.442Z,22.27
2022-11-23T03:10:50.218Z,21.42
2022-11-23T03:13:20.337Z,22.27
2022-11-23T03:15:48.678Z,22.77
2022-11-23T03:18:17.108Z,22.48
2022-11-23T03:20:45.495Z,21.83
2022-11-23T03:23:13.961Z,23.52
2022-11-23T03:25:42.323Z,23.70
2022-11-23T03:28:11.160Z,22.60
2022-11-23T03:30:39.518Z,22.08
2022-11-23T03:33:08.836Z,21.60
2022-11-23T03:35:38.649Z,22.48
2022-11-23T03:38:33.150Z,22.58
2022-11-23T03:41:10.945Z,22.27
2022-11-23T03:43:54.864Z,24.25
2022-11-23T03:46:24.295Z,17.90
2022-11-23T03:48:52.742Z,22.35
2022-11-23T03:51:25.441Z,23.27
2022-11-23T03:53:55.023Z,22.65
2022-11-23T03:56:23.638Z,22.00
2022-11-23T03:58:52.035Z,19.63
2022-11-23T04:01:20.685Z,21.33
2022-11-23T04:03:53.465Z,21.58
2022-11-23T04:06:44.759Z,21.65
2022-11-23T04:09:23.498Z,20.90
2022-11-23T04:12:14.930Z,20.02
2022-11-23T04:14:46.467Z,20.85
2022-11-23T04:17:14.865Z,21.00
2022-11-23T04:19:43.493Z,21.38
2022-11-23T04:22:13.002Z,20.00
2022-11-23T04:24:43.816Z,18.75
2022-11-23T04:27:12.617Z,20.13
2022-11-23T04:29:41.550Z,20.20
2022-11-23T04:32:12.329Z,19.75
2022-11-23T04:34:41.304Z,19.42
2022-11-23T04:37:13.600Z,20.98
2022-11-23T04:39:45.070Z,20.08
2022-11-23T04:42:22.120Z,20.80
2022-11-23T04:44:57.397Z,21.70
2022-11-23T04:47:26.941Z,21.40
2022-11-23T04:49:57.647Z,21.23
2022-11-23T04:52:26.060Z,20.80
2022-11-23T04:54:54.513Z,21.92
2022-11-23T04:57:24.150Z,20.63
2022-11-23T04:59:53.913Z,22.10
2022-11-23T05:02:24.718Z,22.83
2022-11-23T05:04:59.353Z,20.27
2022-11-23T05:07:31.889Z,20.45
2022-11-23T05:10:04.898Z,20.80
2022-11-23T05:12:36.650Z,20.90
2022-11-23T05:15:07.132Z,21.10
2022-11-23T05:17:42.833Z,20.48
2022-11-23T05:20:17.412Z,19.42
2022-11-23T05:22:49.850Z,20.63
2022-11-23T05:25:27.245Z,19.35
2022-11-23T05:28:23.327Z,69.13
2022-11-23T05:30:55.268Z,19.67
2022-11-23T05:33:23.649Z,21.02
2022-11-23T05:35:53.132Z,20.60
2022-11-23T05:38:29.994Z,19.10
2022-11-23T05:41:02.381Z,20.02
2022-11-23T05:43:30.988Z,19.67
2022-11-23T05:46:01.137Z,20.30
2022-11-23T05:48:31.082Z,19.80
2022-11-23T05:51:05.047Z,19.23
2022-11-23T05:53:41.377Z,21.50
2022-11-23T05:56:25.695Z,21.63
2022-11-23T05:59:11.842Z,21.80
2022-11-23T06:01:42.476Z,20.10
2022-11-23T06:04:13.568Z,21.80
2022-11-23T06:06:46.204Z,22.63
2022-11-23T06:09:15.180Z,21.30
2022-11-23T06:11:48.795Z,21.45
2022-11-23T06:14:20.961Z,21.55
2022-11-23T06:16:51.471Z,21.38
2022-11-23T06:19:40.493Z,21.58
2022-11-23T06:22:09.470Z,20.95
2022-11-23T06:24:46.360Z,20.65
2022-11-23T06:27:40.264Z,20.73
2022-11-23T06:30:17.055Z,20.92
2022-11-23T06:32:46.281Z,20.60
2022-11-23T06:35:14.840Z,21.45
2022-11-23T06:37:45.435Z,21.15
2022-11-23T06:40:14.826Z,20.35
2022-11-23T06:42:44.162Z,19.63
2022-11-23T06:45:23.588Z,19.23
2022-11-23T06:47:57.201Z,18.83
2022-11-23T06:50:26.479Z,17.85
2022-11-23T06:53:02.635Z,17.77
2022-11-23T06:55:43.065Z,18.75
2022-11-23T06:58:14.141Z,18.17
2022-11-23T07:00:42.883Z,17.30
2022-11-23T07:03:24.856Z,17.08
2022-11-23T07:06:07.870Z,16.52
2022-11-23T07:08:43.291Z,16.50
2022-11-23T07:11:34.727Z,14.88
2022-11-23T07:14:03.228Z,15.27
2022-11-23T07:16:32.455Z,15.27
2022-11-23T07:19:00.945Z,14.68
2022-11-23T07:21:29.303Z,13.80
2022-11-23T07:23:57.647Z,13.15
2022-11-23T07:26:26.335Z,13.35
2022-11-23T07:28:54.824Z,13.10
2022-11-23T07:31:23.231Z,13.13
2022-11-23T07:33:52.345Z,12.15
2022-11-23T07:36:22.253Z,11.90
2022-11-23T07:38:50.723Z,12.50
2022-11-23T07:41:21.781Z,12.07
2022-11-23T07:44:11.156Z,13.02
2022-11-23T07:46:39.506Z,11.30
2022-11-23T07:49:07.932Z,11.65
2022-11-23T07:51:36.303Z,12.73
2022-11-23T07:54:04.872Z,12.80
2022-11-23T07:56:33.267Z,12.77
2022-11-23T07:59:01.805Z,12.63
2022-11-23T08:01:31.593Z,10.73
2022-11-23T08:03:59.868Z,10.60
2022-11-23T08:06:29.206Z,10.88
2022-11-23T08:08:57.833Z,9.73
2022-11-23T08:11:26.532Z,10.20
2022-11-23T08:13:55.225Z,9.85
2022-11-23T08:16:23.755Z,9.80
2022-11-23T08:18:52.096Z,8.88
2022-11-23T08:21:20.414Z,9.02
2022-11-23T08:23:49.095Z,9.30
2022-11-23T08:26:17.428Z,8.75
2022-11-23T08:28:45.982Z,8.85
2022-11-23T08:31:15.217Z,8.10
2022-11-23T08:33:44.952Z,7.75
2022-11-23T08:36:13.545Z,8.13
2022-11-23T08:38:42.360Z,7.60
2022-11-23T08:41:10.725Z,9.02
2022-11-23T08:43:39.151Z,7.03
2022-11-23T08:46:11.055Z,7.50
2022-11-23T08:48:39.907Z,7.70
2022-11-23T08:51:09.416Z,6.95
2022-11-23T08:53:38.325Z,7.55
2022-11-23T08:56:07.700Z,6.78
2022-11-23T08:58:37.070Z,7.65
2022-11-23T09:01:14.840Z,7.35
2022-11-23T09:03:45.776Z,6.90
2022-11-23T09:06:14.075Z,6.57
2022-11-23T09:08:42.399Z,6.15
2022-11-23T09:11:13.598Z,6.15
2022-11-23T09:13:41.992Z,6.70
2022-11-23T09:16:10.607Z,5.95
2022-11-23T09:18:39.423Z,5.85
2022-11-23T09:21:07.881Z,7.18
2022-11-23T09:23:36.488Z,6.43
2022-11-23T09:26:05.469Z,6.30
2022-11-23T09:28:34.377Z,6.30
2022-11-23T09:31:05.053Z,6.03
2022-11-23T09:33:33.335Z,6.63
2022-11-23T09:36:04.781Z,5.93
2022-11-23T09:38:55.165Z,6.93
2022-11-23T09:41:21.790Z,5.93
2022-11-23T09:44:16.928Z,6.05
2022-11-23T09:47:04.051Z,6.53
2022-11-23T09:49:52.165Z,5.72
2022-11-23T09:52:24.792Z,6.80
2022-11-23T09:54:57.427Z,5.72
2022-11-23T09:57:31.398Z,6.82
2022-11-23T10:00:04.722Z,6.00
2022-11-23T10:02:40.082Z,5.28
2022-11-23T10:05:17.020Z,4.78
2022-11-23T10:08:17.032Z,5.95
2022-11-23T10:10:58.356Z,6.20
2022-11-23T10:13:54.686Z,6.43
2022-11-23T10:16:37.886Z,5.55
2022-11-23T10:19:26.820Z,5.10
2022-11-23T10:22:16.826Z,5.05
2022-11-23T10:24:51.354Z,4.60
2022-11-23T10:27:22.786Z,4.57
2022-11-23T10:29:54.581Z,4.88
2022-11-23T10:32:39.144Z,4.53
2022-11-23T10:35:16.518Z,5.25
2022-11-23T10:37:44.815Z,4.97
2022-11-23T10:40:19.046Z,4.25
2022-11-23T10:43:01.401Z,5.57
2022-11-23T10:45:30.079Z,5.65
2022-11-23T10:48:00.471Z,6.07
2022-11-23T10:50:37.364Z,7.05
2022-11-23T10:53:05.575Z,5.80
2022-11-23T10:55:47.486Z,5.55
2022-11-23T10:58:45.814Z,5.70
2022-11-23T11:01:15.531Z,5.82
2022-11-23T11:03:43.924Z,4.83
2022-11-23T11:06:23.152Z,6.25
2022-11-23T11:08:55.280Z,4.95
2022-11-23T11:11:37.387Z,5.75
2022-11-23T11:14:16.196Z,3.75
2022-11-23T11:16:51.931Z,3.63
2022-11-23T11:19:30.962Z,4.05
2022-11-23T11:22:23.480Z,4.15
2022-11-23T11:24:51.931Z,3.33
2022-11-23T11:27:26.218Z,3.65
2022-11-23T11:30:07.208Z,2.72
2022-11-23T11:33:14.589Z,2.85
2022-11-23T11:35:47.445Z,4.28
2022-11-23T11:38:35.884Z,3.78
2022-11-23T11:41:10.084Z,3.55
2022-11-23T11:43:40.634Z,3.05
2022-11-23T11:49:07.806Z,3.20
2022-11-23T11:51:55.447Z,3.08
2022-11-23T11:54:30.558Z,2.42
2022-11-23T11:57:05.128Z,2.70
2022-11-23T11:59:43.095Z,2.85
2022-11-23T12:02:31.139Z,2.95
2022-11-23T12:05:05.163Z,3.30
2022-11-23T12:07:46.779Z,3.38
2022-11-23T12:10:15.051Z,4.47
2022-11-23T12:12:43.656Z,4.15
2022-11-23T12:15:48.427Z,4.15
2022-11-23T12:18:22.563Z,3.85
2022-11-23T12:21:25.474Z,4.53
2022-11-23T12:24:25.282Z,4.25
2022-11-23T12:26:56.537Z,3.05
2022-11-23T12:29:53.315Z,2.90
2022-11-23T12:32:52.612Z,3.22
2022-11-23T12:35:31.407Z,2.95
2022-11-23T12:38:17.788Z,3.35
2022-11-23T12:40:58.417Z,3.38
2022-11-23T12:43:50.981Z,3.28
2022-11-23T12:46:38.176Z,2.70
2022-11-23T12:49:39.021Z,3.30
2022-11-23T12:52:44.414Z,3.17
2022-11-23T12:55:29.467Z,3.20
2022-11-23T12:58:12.323Z,3.85
2022-11-23T13:01:03.603Z,3.08
2022-11-23T13:04:00.292Z,3.03
2022-11-23T13:09:49.770Z,3.20
2022-11-23T13:12:24.463Z,2.90
2022-11-23T13:15:03.287Z,2.95
2022-11-23T13:17:45.994Z,3.05
2022-11-23T13:20:32.888Z,3.47
2022-11-23T13:23:01.747Z,3.80
2022-11-23T13:25:31.287Z,3.03
2022-11-23T13:28:29.689Z,3.40
2022-11-23T13:31:27.602Z,2.90
2022-11-23T13:33:59.695Z,2.78
2022-11-23T13:36:56.258Z,2.88
2022-11-23T13:39:44.874Z,2.47
2022-11-23T13:42:14.775Z,2.70
2022-11-23T13:44:43.644Z,2.88
2022-11-23T13:47:16.157Z,2.42
2022-11-23T13:49:52.999Z,2.60
2022-11-23T13:52:21.366Z,2.50
2022-11-23T13:55:02.517Z,3.15
2022-11-23T13:57:34.033Z,2.35
2022-11-23T14:00:39.973Z,2.40
2022-11-23T14:04:00.617Z,3.30
2022-11-23T14:06:56.941Z,2.30
2022-11-23T14:09:44.116Z,3.00
2022-11-23T14:12:12.341Z,2.55
2022-11-23T14:14:43.476Z,2.13
2022-11-23T14:17:31.261Z,2.03
2022-11-23T14:20:41.341Z,2.28
2022-11-23T14:23:31.468Z,2.40
2022-11-23T14:26:30.858Z,2.33
2022-11-23T14:29:17.377Z,2.25
2022-11-23T14:32:01.483Z,2.17
2022-11-23T14:34:57.229Z,2.53
2022-11-23T14:37:56.117Z,2.13
2022-11-23T14:40:30.650Z,3.25
2022-11-23T14:43:01.079Z,2.30
2022-11-23T14:45:33.302Z,2.97
2022-11-23T14:48:38.489Z,2.33
2022-11-23T14:51:13.423Z,2.00
2022-11-23T14:53:47.198Z,2.83
2022-11-23T14:56:32.654Z,2.83
2022-11-23T14:59:05.783Z,2.53
2022-11-23T15:01:35.327Z,2.72
2022-11-23T15:04:21.312Z,2.53
2022-11-23T15:06:53.152Z,2.22
2022-11-23T15:09:45.902Z,2.58
2022-11-23T15:12:42.556Z,2.83
2022-11-23T15:15:24.340Z,2.85
2022-11-23T15:17:53.655Z,2.35
2022-11-23T15:20:26.838Z,2.72
2022-11-23T15:22:55.723Z,2.85
2022-11-23T15:25:24.814Z,2.53
2022-11-23T15:27:53.628Z,2.53
2022-11-23T15:30:31.555Z,2.70
2022-11-23T15:33:05.346Z,2.08
2022-11-23T15:35:36.662Z,2.10
2022-11-23T15:38:12.281Z,2.60
2022-11-23T15:40:50.057Z,2.67
2022-11-23T15:43:20.105Z,2.45
2022-11-23T15:45:48.472Z,2.72
2022-11-23T15:48:23.123Z,2.05
2022-11-23T15:50:57.340Z,2.13
2022-11-23T15:56:07.073Z,2.38
2022-11-23T15:58:35.512Z,2.25
2022-11-23T16:01:13.695Z,2.33
2022-11-23T16:04:03.941Z,3.05
2022-11-23T16:06:32.287Z,2.78
2022-11-23T16:09:00.772Z,2.03
2022-11-23T16:11:36.094Z,2.22
2022-11-23T16:14:18.882Z,2.45
2022-11-23T16:16:48.945Z,2.15
2022-11-23T16:19:37.932Z,3.20
2022-11-23T16:22:07.639Z,2.42
2022-11-23T16:24:36.694Z,3.10
2022-11-23T16:27:13.701Z,2.28
2022-11-23T16:29:42.320Z,1.98
2022-11-23T16:32:28.988Z,2.67
2022-11-23T16:35:16.529Z,2.35
2022-11-23T16:37:45.317Z,1.92
2022-11-23T16:40:14.791Z,1.75
2022-11-23T16:42:43.699Z,2.00
2022-11-23T16:45:13.068Z,2.00
2022-11-23T16:47:53.100Z,2.05
2022-11-23T16:50:27.068Z,1.50
2022-11-23T16:52:55.622Z,1.90
2022-11-23T16:55:24.187Z,1.85
2022-11-23T16:57:53.673Z,1.98
2022-11-23T17:00:23.385Z,1.95
2022-11-23T17:02:51.838Z,1.77
2022-11-23T17:05:24.486Z,1.83
2022-11-23T17:07:53.285Z,1.83
2022-11-23T17:10:31.200Z,2.17
2022-11-23T17:13:00.405Z,1.90
2022-11-23T17:15:31.566Z,2.85
2022-11-23T17:18:00.116Z,2.60
2022-11-23T17:20:32.466Z,2.03
2022-11-23T17:23:01.473Z,2.33
2022-11-23T17:25:30.465Z,2.03
2022-11-23T17:28:00.526Z,2.05
2022-11-23T17:30:28.938Z,2.15
2022-11-23T17:32:57.710Z,1.88
2022-11-23T17:35:26.412Z,1.67
2022-11-23T17:37:54.848Z,1.98
2022-11-23T17:40:24.461Z,2.17
2022-11-23T17:42:53.619Z,2.33
2022-11-23T17:45:21.981Z,1.88
2022-11-23T17:47:50.427Z,2.00
2022-11-23T17:50:19.596Z,1.75
2022-11-23T17:52:48.475Z,1.98
2022-11-23T17:55:17.155Z,2.63
2022-11-23T17:57:45.490Z,2.15
2022-11-23T18:00:19.213Z,1.90
2022-11-23T18:02:48.050Z,2.00
2022-11-23T18:05:21.633Z,2.67
2022-11-23T18:07:53.058Z,2.15
2022-11-23T18:10:21.823Z,2.00
2022-11-23T18:12:50.792Z,2.10
2022-11-23T18:15:19.168Z,2.58
2022-11-23T18:17:47.526Z,2.63
2022-11-23T18:20:15.853Z,2.17
2022-11-23T18:22:44.414Z,2.95
2022-11-23T18:25:12.940Z,2.40
2022-11-23T18:27:41.595Z,2.90
2022-11-23T18:30:10.535Z,2.95
2022-11-23T18:32:38.993Z,2.83
2022-11-23T18:35:07.921Z,2.40
2022-11-23T18:37:36.235Z,3.10
2022-11-23T18:40:05.679Z,2.58
2022-11-23T18:42:34.459Z,2.70
2022-11-23T18:45:06.337Z,3.55
2022-11-23T18:47:35.204Z,3.30
2022-11-23T18:50:06.669Z,2.92
2022-11-23T18:52:35.282Z,3.38
2022-11-23T18:55:03.933Z,2.97
2022-11-23T18:57:32.483Z,2.97
2022-11-23T19:00:01.673Z,2.65
2022-11-23T19:02:30.373Z,2.63
2022-11-23T19:04:58.765Z,3.25
2022-11-23T19:07:27.615Z,3.50
2022-11-23T19:09:57.106Z,3.70
2022-11-23T19:12:25.570Z,4.07
2022-11-23T19:14:54.138Z,3.45
2022-11-23T19:17:22.418Z,3.47
2022-11-23T19:19:51.041Z,3.10
2022-11-23T19:22:19.396Z,3.83
2022-11-23T19:24:47.823Z,3.67
2022-11-23T19:27:16.283Z,4.00
2022-11-23T19:29:45.050Z,4.45
2022-11-23T19:32:13.326Z,4.20
2022-11-23T19:34:42.876Z,4.15
2022-11-23T19:37:11.220Z,4.72
2022-11-23T19:39:39.775Z,4.57
2022-11-23T19:42:08.314Z,5.00
2022-11-23T19:44:36.623Z,4.63
2022-11-23T19:47:10.133Z,4.25
2022-11-23T19:49:42.216Z,4.57
2022-11-23T19:52:10.464Z,4.80
2022-11-23T19:54:38.904Z,4.43
2022-11-23T19:57:07.478Z,5.30
2022-11-23T19:59:36.149Z,5.15
2022-11-23T20:02:04.766Z,5.55
2022-11-23T20:04:33.125Z,6.18
2022-11-23T20:07:01.421Z,6.05
2022-11-23T20:09:29.889Z,6.57
2022-11-23T20:11:58.187Z,6.97
2022-11-23T20:14:26.515Z,6.88
2022-11-23T20:16:55.940Z,7.57
2022-11-23T20:19:24.357Z,7.35
2022-11-23T20:21:53.357Z,8.60
2022-11-23T20:24:21.686Z,7.88
2022-11-23T20:26:50.105Z,7.75
2022-11-23T20:29:18.423Z,8.90
2022-11-23T20:31:46.878Z,8.43
2022-11-23T20:34:20.482Z,8.30
2022-11-23T20:36:50.458Z,8.93
2022-11-23T20:39:18.910Z,8.48
2022-11-23T20:41:49.488Z,8.95
2022-11-23T20:44:18.083Z,8.43
2022-11-23T20:47:02.952Z,8.43
2022-11-23T20:49:32.170Z,9.18
2022-11-23T20:52:00.708Z,9.30
2022-11-23T20:54:29.193Z,9.82
2022-11-23T20:57:00.312Z,9.77
2022-11-23T20:59:29.215Z,9.27
2022-11-23T21:01:57.642Z,9.50
2022-11-23T21:04:26.675Z,9.57
2022-11-23T21:06:55.176Z,10.02
2022-11-23T21:09:23.679Z,9.43
2022-11-23T21:12:10.624Z,10.57
2022-11-23T21:14:39.259Z,10.70
2022-11-23T21:17:07.616Z,10.20
2022-11-23T21:19:39.269Z,9.90
2022-11-23T21:22:14.925Z,10.23
2022-11-23T21:24:46.359Z,10.88
2022-11-23T21:27:14.679Z,10.07
2022-11-23T21:29:45.255Z,10.13
2022-11-23T21:34:43.285Z,11.25
2022-11-23T21:37:12.803Z,11.90
2022-11-23T21:39:42.134Z,10.98
2022-11-23T21:42:11.646Z,11.02
2022-11-23T21:44:41.490Z,10.73
2022-11-23T21:47:09.879Z,11.00
2022-11-23T21:49:38.379Z,11.45
2022-11-23T21:52:06.660Z,11.65
2022-11-23T21:54:36.408Z,10.50
2022-11-23T21:57:05.110Z,12.05
2022-11-23T21:59:33.411Z,11.55
2022-11-23T22:02:01.775Z,10.75
2022-11-23T22:04:30.186Z,11.40
2022-11-23T22:06:58.614Z,13.68
2022-11-23T22:09:27.225Z,12.30
2022-11-23T22:11:55.473Z,11.75
2022-11-23T22:14:23.796Z,11.30
2022-11-23T22:16:56.641Z,12.85
2022-11-23T22:19:24.924Z,12.55
2022-11-23T22:21:53.433Z,11.65
2022-11-23T22:24:22.636Z,13.18
2022-11-23T22:26:50.957Z,11.52
2022-11-23T22:29:20.420Z,12.65
2022-11-23T22:31:48.791Z,12.55
2022-11-23T22:34:17.164Z,13.70
2022-11-23T22:36:45.675Z,12.50
2022-11-23T22:39:14.141Z,12.90
2022-11-23T22:41:43.037Z,13.85
2022-11-23T22:44:11.347Z,12.73
2022-11-23T22:46:39.854Z,13.10
2022-11-23T22:49:08.846Z,12.80
2022-11-23T22:51:37.458Z,12.70
2022-11-23T22:54:06.193Z,12.27
2022-11-23T22:56:34.875Z,12.52
2022-11-23T22:59:03.620Z,13.35
2022-11-23T23:01:32.692Z,12.02
2022-11-23T23:04:03.164Z,12.52
2022-11-23T23:06:36.275Z,12.52
2022-11-23T23:09:07.383Z,12.27
2022-11-23T23:11:36.751Z,12.23
2022-11-23T23:14:06.017Z,13.00
2022-11-23T23:16:35.268Z,12.93
2022-11-23T23:19:04.037Z,13.98
2022-11-23T23:21:33.023Z,13.75
2022-11-23T23:24:01.529Z,14.98
2022-11-23T23:26:30.337Z,15.82
2022-11-23T23:29:00.741Z,14.65
2022-11-23T23:31:30.052Z,14.13
2022-11-23T23:33:59.748Z,13.52
2022-11-23T23:36:28.544Z,15.43
2022-11-23T23:38:57.888Z,13.85
2022-11-23T23:41:26.587Z,12.90
2022-11-23T23:43:55.105Z,13.07
2022-11-23T23:46:23.608Z,13.48
2022-11-23T23:48:52.074Z,14.00
2022-11-23T23:51:24.854Z,13.38
2022-11-23T23:53:53.353Z,13.27
2022-11-23T23:56:28.019Z,13.27
2022-11-23T23:58:58.284Z,13.55
